Time;durP1;ratioP1;P1;durP2;ratioP2;P2;SDS_P1;SDS_P2;PMS_P1;PMS_P2;Temp;Humidity;BMP_temperature;BMP_pressure;BME280_temperature;BME280_humidity;BME280_pressure;Samples;Min_cycle;Max_cycle;Signal;HPM_P1;HPM_P2
2021/12/14 00:00:19;;;;;;;13.17;7.90;;;;;;;4.85;98.58;100264.25;5023558;28;20037;-66
2021/12/14 00:02:46;;;;;;;14.00;8.57;;;;;;;4.80;97.96;100259.34;5006662;28;20144;-63
2021/12/14 00:05:15;;;;;;;13.93;7.77;;;;;;;4.69;99.33;100281.13;5023429;28;20034;-64
2021/12/14 00:07:41;;;;;;;12.97;7.87;;;;;;;4.77;98.81;100276.16;5023492;28;20053;-64
2021/12/14 00:10:56;;;;;;;12.43;7.67;;;;;;;4.73;98.86;100281.72;5023574;28;20026;-65
2021/12/14 00:13:22;;;;;;;13.97;8.17;;;;;;;4.70;98.67;100281.94;5018261;28;20077;-64
2021/12/14 00:15:49;;;;;;;16.43;8.63;;;;;;;4.69;99.00;100277.66;5023193;28;20038;-66
2021/12/14 00:18:15;;;;;;;15.50;9.10;;;;;;;4.82;98.54;100279.28;5005441;28;20117;-66
2021/12/14 00:20:46;;;;;;;13.60;8.63;;;;;;;4.96;97.51;100286.13;5023323;28;20025;-66
2021/12/14 00:25:54;;;;;;;13.80;8.30;;;;;;;4.74;97.92;100288.66;5023167;28;20021;-66
2021/12/14 00:28:31;;;;;;;16.23;8.47;;;;;;;4.71;97.82;100286.25;5023255;28;20041;-66
2021/12/14 00:31:02;;;;;;;11.90;8.30;;;;;;;4.65;98.49;100291.94;5023392;28;20354;-66
2021/12/14 00:33:33;;;;;;;14.97;8.60;;;;;;;4.65;98.72;100291.94;5020912;28;20037;-65
2021/12/14 00:36:00;;;;;;;14.57;8.40;;;;;;;4.66;98.84;100298.88;5022774;28;20030;-64
2021/12/14 00:38:26;;;;;;;14.77;8.60;;;;;;;4.70;98.44;100292.44;5021124;28;20042;-63
2021/12/14 00:40:56;;;;;;;13.70;8.27;;;;;;;4.63;99.00;100292.06;5005504;28;20048;-66
2021/12/14 00:43:23;;;;;;;18.03;9.37;;;;;;;4.72;97.97;100301.03;5004157;28;20104;-66
2021/12/14 00:45:48;;;;;;;20.67;10.60;;;;;;;4.68;98.74;100299.59;5021574;28;20032;-66
2021/12/14 00:48:15;;;;;;;18.10;10.30;;;;;;;4.64;98.17;100295.50;5020454;28;20034;-66
2021/12/14 00:50:57;;;;;;;20.20;10.77;;;;;;;4.66;99.34;100291.84;5018986;28;20040;-66
2021/12/14 00:53:24;;;;;;;14.87;9.13;;;;;;;4.75;98.82;100292.94;5017483;28;20046;-66
2021/12/14 00:55:56;;;;;;;15.57;9.20;;;;;;;4.74;98.39;100293.91;5020771;28;20034;-66
2021/12/14 00:58:23;;;;;;;13.30;8.50;;;;;;;4.70;98.21;100298.53;5022056;28;20042;-64
2021/12/14 01:00:51;;;;;;;15.57;9.00;;;;;;;4.77;97.71;100298.91;5017742;28;20319;-65
2021/12/14 01:03:17;;;;;;;16.47;8.57;;;;;;;4.76;98.18;100298.09;5018709;28;20042;-65
2021/12/14 01:05:46;;;;;;;14.33;8.40;;;;;;;4.74;98.11;100302.59;5019931;28;20037;-66
2021/12/14 01:08:17;;;;;;;12.23;7.23;;;;;;;4.60;97.29;100257.34;5019642;28;20046;-64
2021/12/14 01:10:47;;;;;;;15.07;8.70;;;;;;;4.68;97.43;100299.59;5021842;28;20026;-64
2021/12/14 01:13:13;;;;;;;16.33;7.80;;;;;;;4.62;97.74;100302.66;5019970;28;20049;-64
2021/12/14 01:18:31;;;;;;;11.90;7.03;;;;;;;4.30;98.88;100297.94;5018257;28;20037;-63
2021/12/14 01:21:20;;;;;;;12.80;7.53;;;;;;;4.42;99.84;100307.53;5019804;28;20036;-64
2021/12/14 01:23:46;;;;;;;13.67;6.63;;;;;;;4.25;99.09;100305.28;5020291;28;20042;-66
2021/12/14 01:26:17;;;;;;;11.43;7.00;;;;;;;4.27;99.64;100307.78;5022239;28;20022;-64
2021/12/14 01:28:44;;;;;;;11.23;6.43;;;;;;;4.19;99.43;100310.13;5024988;28;20048;-64
2021/12/14 01:31:25;;;;;;;10.60;5.77;;;;;;;4.14;99.07;100306.00;5025756;28;20030;-66
2021/12/14 01:33:55;;;;;;;10.90;6.23;;;;;;;4.07;99.64;100310.00;5020489;28;20289;-64
2021/12/14 01:36:36;;;;;;;11.03;6.40;;;;;;;4.19;99.59;100316.19;5025618;28;20331;-64
2021/12/14 01:41:49;;;;;;;9.30;6.07;;;;;;;4.14;99.48;100307.78;5025238;28;20045;-64
2021/12/14 01:44:15;;;;;;;9.40;5.50;;;;;;;4.08;99.60;100319.53;5023267;28;20034;-66
2021/12/14 01:46:56;;;;;;;9.73;6.30;;;;;;;4.19;99.09;100310.94;5022014;28;20037;-64
2021/12/14 01:49:23;;;;;;;10.30;5.93;;;;;;;3.93;99.50;100317.97;5020502;28;20315;-63
2021/12/14 01:51:53;;;;;;;11.23;6.23;;;;;;;4.07;99.52;100312.63;5025360;28;20049;-64
2021/12/14 01:54:23;;;;;;;9.60;5.53;;;;;;;4.10;99.30;100317.63;5026311;28;20077;-64
2021/12/14 01:56:48;;;;;;;9.23;5.40;;;;;;;4.09;98.66;100307.28;5025979;28;20063;-64
2021/12/14 01:59:22;;;;;;;9.73;5.20;;;;;;;3.98;99.62;100315.88;5025885;28;20053;-66
2021/12/14 02:02:48;;;;;;;10.98;6.10;;;;;;;3.72;99.54;100262.66;5025813;28;20041;-64
2021/12/14 02:04:45;;;;;;;8.60;5.23;;;;;;;3.95;100.00;100318.72;5004740;28;20035;-65
2021/12/14 02:07:11;;;;;;;9.27;4.97;;;;;;;3.90;99.66;100312.09;5025779;28;20040;-66
2021/12/14 02:09:38;;;;;;;8.37;5.30;;;;;;;3.90;99.86;100317.34;5025678;28;20030;-65
2021/12/14 02:12:27;;;;;;;10.00;5.47;;;;;;;4.00;99.71;100315.78;5025067;28;20048;-66
2021/12/14 02:15:00;;;;;;;10.37;5.20;;;;;;;3.99;100.00;100317.56;5025807;28;20030;-67
2021/12/14 02:17:26;;;;;;;9.47;5.47;;;;;;;3.81;99.95;100313.56;5025269;28;20113;-64
2021/12/14 02:19:51;;;;;;;7.50;5.13;;;;;;;3.88;100.00;100316.63;5025406;28;20088;-65
2021/12/14 02:22:18;;;;;;;8.47;5.10;;;;;;;3.96;99.49;100315.13;5025510;28;20113;-64
2021/12/14 02:24:46;;;;;;;9.10;5.43;;;;;;;4.02;99.22;100312.09;5008035;28;20037;-65
2021/12/14 02:27:12;;;;;;;7.20;4.47;;;;;;;3.88;98.90;100314.84;5025031;28;20323;-66
2021/12/14 02:29:43;;;;;;;7.00;4.43;;;;;;;3.90;99.50;100323.44;5025642;28;20076;-66
2021/12/14 02:32:12;;;;;;;7.37;4.70;;;;;;;3.91;98.81;100321.66;5007598;28;20144;-63
2021/12/14 02:35:01;;;;;;;6.63;4.50;;;;;;;3.94;98.84;100324.88;5007705;28;20104;-66
2021/12/14 02:37:41;;;;;;;7.97;4.77;;;;;;;3.73;99.35;100321.97;5024270;28;20053;-66
2021/12/14 02:40:53;;;;;;;8.53;4.90;;;;;;;3.77;99.50;100326.03;5018735;28;20037;-64
2021/12/14 02:43:19;;;;;;;8.80;4.80;;;;;;;4.04;98.98;100320.69;5019425;28;20038;-66
2021/12/14 02:45:45;;;;;;;6.53;4.53;;;;;;;3.84;98.81;100319.44;5021640;28;20068;-66
2021/12/14 02:48:10;;;;;;;9.40;5.23;;;;;;;3.87;98.66;100322.78;5021844;28;20042;-64
2021/12/14 02:50:38;;;;;;;8.97;4.93;;;;;;;3.80;98.52;100323.22;5021670;28;20149;-66
2021/12/14 02:53:03;;;;;;;7.67;4.63;;;;;;;3.75;98.41;100322.69;5022136;28;20302;-66
2021/12/14 02:55:30;;;;;;;7.93;4.90;;;;;;;3.92;98.68;100333.81;5023409;28;20029;-63
2021/12/14 02:58:05;;;;;;;8.47;5.23;;;;;;;3.89;98.21;100327.00;5022067;28;20260;-66
2021/12/14 03:00:39;;;;;;;7.35;4.72;;;;;;;3.99;97.82;100330.66;5021029;28;20057;-66
2021/12/14 03:03:07;;;;;;;7.77;5.00;;;;;;;3.85;97.62;100323.75;5018547;28;20061;-64
2021/12/14 03:05:35;;;;;;;7.47;4.40;;;;;;;3.93;97.03;100333.69;5020798;28;20038;-66
2021/12/14 03:08:05;;;;;;;6.90;4.30;;;;;;;3.70;97.80;100327.41;5021246;28;20196;-63
2021/12/14 03:10:39;;;;;;;6.80;4.40;;;;;;;3.74;97.74;100338.50;5021498;28;20036;-65
2021/12/14 03:13:08;;;;;;;7.85;4.93;;;;;;;3.74;98.10;100330.66;5020977;28;20353;-63
2021/12/14 03:15:48;;;;;;;7.40;4.33;;;;;;;3.65;99.14;100334.75;5021216;28;20041;-64
2021/12/14 03:18:17;;;;;;;11.20;5.13;;;;;;;3.61;98.98;100328.03;5020684;28;20129;-63
2021/12/14 03:20:50;;;;;;;14.47;7.30;;;;;;;3.73;99.49;100331.59;5019771;28;20038;-66
2021/12/14 03:23:32;;;;;;;13.37;6.30;;;;;;;3.73;98.12;100336.84;5022712;28;20207;-66
2021/12/14 03:26:01;;;;;;;11.30;5.50;;;;;;;3.65;97.84;100328.66;5021117;28;20014;-64
2021/12/14 03:28:29;;;;;;;8.03;5.23;;;;;;;3.64;98.38;100338.28;5020682;28;20041;-64
2021/12/14 03:31:00;;;;;;;12.50;6.20;;;;;;;3.63;98.51;100341.03;5022354;28;20045;-64
2021/12/14 03:33:31;;;;;;;11.93;5.50;;;;;;;3.74;98.79;100338.50;5022521;28;20042;-66
2021/12/14 03:36:03;;;;;;;11.47;7.87;;;;;;;3.80;97.62;100338.09;5020967;28;20034;-64
2021/12/14 03:38:40;;;;;;;15.13;10.03;;;;;;;3.89;97.45;100342.72;5021831;28;20212;-64
2021/12/14 03:41:35;;;;;;;12.07;7.20;;;;;;;3.85;96.81;100342.09;5022575;28;20030;-66
2021/12/14 03:44:04;;;;;;;12.68;6.97;;;;;;;3.55;97.79;100335.47;4997337;28;20050;-64
2021/12/14 03:46:34;;;;;;;13.30;6.83;;;;;;;3.74;97.56;100339.34;5003584;28;20034;-66
2021/12/14 03:49:02;;;;;;;16.20;9.13;;;;;;;3.71;97.39;100350.03;5016719;28;20080;-64
2021/12/14 03:51:27;;;;;;;10.37;7.17;;;;;;;3.63;97.17;100347.09;5020230;28;20053;-64
2021/12/14 03:53:55;;;;;;;11.83;7.13;;;;;;;3.72;97.61;100341.25;5021995;28;20350;-63
2021/12/14 03:56:21;;;;;;;12.40;7.53;;;;;;;3.79;96.90;100341.66;5021106;28;20034;-64
2021/12/14 03:58:48;;;;;;;10.67;7.23;;;;;;;3.65;96.61;100349.63;5021309;28;20038;-64
2021/12/14 04:01:21;;;;;;;12.00;6.20;;;;;;;3.66;96.48;100359.16;5022096;28;20026;-64
2021/12/14 04:03:50;;;;;;;9.77;5.20;;;;;;;3.52;97.26;100357.44;5021084;28;20034;-64
2021/12/14 04:06:17;;;;;;;7.37;5.00;;;;;;;3.63;96.92;100357.56;5019554;28;20375;-64
2021/12/14 04:08:44;;;;;;;6.83;4.83;;;;;;;3.43;97.95;100358.91;5020754;28;20320;-64
2021/12/14 04:11:11;;;;;;;7.53;4.50;;;;;;;3.42;98.18;100362.47;5019538;28;20091;-64
2021/12/14 04:13:44;;;;;;;8.27;4.80;;;;;;;3.46;97.78;100360.47;5018894;28;20038;-63
2021/12/14 04:16:13;;;;;;;7.53;4.50;;;;;;;3.20;98.65;100368.28;5020242;28;20044;-64
2021/12/14 04:18:39;;;;;;;7.40;5.07;;;;;;;3.36;98.66;100364.66;5001249;28;20193;-66
2021/12/14 04:21:05;;;;;;;12.33;6.27;;;;;;;3.53;97.95;100362.59;5020166;28;20038;-65
2021/12/14 04:23:39;;;;;;;8.80;5.23;;;;;;;3.66;97.20;100369.63;5021318;28;20042;-64
2021/12/14 04:26:08;;;;;;;7.78;4.57;;;;;;;3.54;96.74;100373.91;5021637;28;20034;-66
2021/12/14 04:28:39;;;;;;;8.20;4.83;;;;;;;3.31;98.15;100377.19;5001787;28;20041;-64
2021/12/14 04:31:04;;;;;;;8.60;4.97;;;;;;;3.37;98.36;100377.63;5020429;28;20030;-64
2021/12/14 04:33:35;;;;;;;8.13;4.40;;;;;;;3.40;97.60;100385.28;5019371;28;20330;-66
2021/12/14 04:36:06;;;;;;;7.63;5.23;;;;;;;3.42;97.93;100377.31;5016547;28;20038;-66
2021/12/14 04:38:38;;;;;;;9.73;5.50;;;;;;;3.28;98.66;100388.72;5017000;28;20250;-64
2021/12/14 04:52:05;;;;;;;12.53;6.27;;;;;;;3.30;97.98;100392.06;5020193;28;19972;-66
2021/12/14 04:54:39;;;;;;;10.00;5.13;;;;;;;3.10;98.63;100384.63;5018960;28;20140;-65
2021/12/14 04:57:24;;;;;;;6.90;4.13;;;;;;;3.04;99.75;100382.41;5016584;28;20419;-66
2021/12/14 04:59:52;;;;;;;7.57;4.50;;;;;;;3.02;99.37;100379.88;5020719;28;20093;-63
2021/12/14 05:02:23;;;;;;;7.47;4.23;;;;;;;3.09;99.43;100391.66;5017926;28;20033;-63
2021/12/14 05:04:50;;;;;;;10.20;5.03;;;;;;;3.04;99.99;100388.47;4999122;28;20037;-66
2021/12/14 05:09:52;;;;;;;11.70;7.30;;;;;;;3.03;100.00;100389.41;5018819;28;20034;-65
2021/12/14 05:12:22;;;;;;;12.90;7.57;;;;;;;3.00;99.98;100397.47;5020628;28;20113;-65
2021/12/14 05:14:48;;;;;;;12.93;6.30;;;;;;;3.27;99.81;100396.66;5019917;28;20036;-66
2021/12/14 05:17:17;;;;;;;6.83;4.60;;;;;;;3.33;98.88;100406.72;5018851;28;20042;-64
2021/12/14 05:19:45;;;;;;;10.23;5.53;;;;;;;3.43;98.47;100399.94;5019448;28;20218;-64
2021/12/14 05:22:17;;;;;;;8.90;5.13;;;;;;;3.51;97.91;100405.53;5021346;28;20038;-66
2021/12/14 05:24:47;;;;;;;11.20;5.50;;;;;;;3.51;97.48;100403.75;5020177;28;20073;-66
2021/12/14 05:27:18;;;;;;;14.90;5.70;;;;;;;3.44;97.01;100419.97;5005226;28;20048;-64
2021/12/14 05:29:44;;;;;;;13.20;6.03;;;;;;;3.45;96.79;100416.41;5020934;28;20038;-63
2021/12/14 05:32:11;;;;;;;13.67;6.87;;;;;;;3.33;96.93;100411.97;5021485;28;20041;-66
2021/12/14 05:34:38;;;;;;;10.37;5.53;;;;;;;3.40;97.23;100421.09;5020651;28;20101;-63
2021/12/14 05:37:06;;;;;;;7.53;4.80;;;;;;;3.26;97.42;100423.75;5021208;28;20097;-64
2021/12/14 05:40:20;;;;;;;7.60;4.90;;;;;;;3.17;97.92;100412.94;5020547;28;20033;-63
2021/12/14 05:45:09;;;;;;;13.25;7.85;;;;;;;3.27;97.60;100428.91;5020754;28;20064;-63
2021/12/14 05:47:51;;;;;;;29.17;14.20;;;;;;;3.31;97.15;100435.63;5022357;28;20121;-64
2021/12/14 05:50:22;;;;;;;20.87;11.43;;;;;;;3.47;96.45;100427.59;5019209;28;20042;-63
2021/12/14 05:52:48;;;;;;;13.13;6.93;;;;;;;3.35;96.64;100438.88;5016173;28;20292;-66
2021/12/14 05:55:15;;;;;;;11.43;6.73;;;;;;;3.43;96.40;100432.22;5018706;28;20037;-66
2021/12/14 05:57:41;;;;;;;9.77;5.80;;;;;;;3.33;96.33;100444.22;5019138;28;20121;-66
2021/12/14 06:00:11;;;;;;;12.10;6.27;;;;;;;3.47;96.23;100446.78;5020746;28;20038;-64
2021/12/14 06:02:37;;;;;;;9.70;5.40;;;;;;;3.64;95.27;100442.22;5019462;28;20113;-66
2021/12/14 06:05:04;;;;;;;6.33;4.30;;;;;;;3.44;95.43;100441.75;5007358;28;20366;-65
2021/12/14 06:07:29;;;;;;;6.90;4.50;;;;;;;3.27;96.38;100443.78;5021236;28;20057;-63
2021/12/14 06:09:55;;;;;;;8.43;5.47;;;;;;;3.50;96.04;100443.97;5002847;28;20041;-66
2021/12/14 06:12:28;;;;;;;10.17;5.47;;;;;;;3.48;95.60;100451.06;5002706;28;20350;-64
2021/12/14 06:14:58;;;;;;;11.07;5.63;;;;;;;3.47;95.60;100452.00;5022137;28;20044;-64
2021/12/14 06:17:34;;;;;;;11.97;6.40;;;;;;;3.45;95.81;100448.66;5023678;28;20030;-64
2021/12/14 06:20:09;;;;;;;18.13;7.57;;;;;;;3.31;96.33;100445.25;5024206;28;20033;-66
2021/12/14 06:22:37;;;;;;;22.10;9.83;;;;;;;3.34;95.78;100453.75;5021410;28;20042;-66
2021/12/14 06:25:25;;;;;;;20.90;9.07;;;;;;;3.32;95.87;100445.16;5022508;28;20034;-65
2021/12/14 06:27:53;;;;;;;26.03;9.73;;;;;;;3.41;95.64;100451.56;5022840;28;20060;-64
2021/12/14 06:30:22;;;;;;;19.83;7.93;;;;;;;3.31;95.99;100453.09;5021488;28;20283;-66
2021/12/14 06:32:57;;;;;;;21.37;9.00;;;;;;;3.22;95.97;100453.69;5020474;28;20046;-66
2021/12/14 06:35:30;;;;;;;22.80;8.80;;;;;;;3.18;96.54;100453.88;5023739;28;20087;-64
2021/12/14 06:40:35;;;;;;;20.80;10.07;;;;;;;3.23;96.32;100456.22;5024572;28;20056;-63
2021/12/14 06:43:08;;;;;;;30.30;15.97;;;;;;;3.13;96.81;100455.97;5021062;28;20088;-66
2021/12/14 06:45:40;;;;;;;19.40;10.20;;;;;;;3.12;96.75;100456.03;5021534;28;20034;-66
2021/12/14 06:48:13;;;;;;;19.30;8.73;;;;;;;3.08;96.75;100460.63;5016208;28;20045;-64
2021/12/14 06:50:57;;;;;;;20.50;10.57;;;;;;;3.08;97.14;100459.78;5021137;28;20034;-64
2021/12/14 06:53:24;;;;;;;18.35;10.40;;;;;;;3.16;96.59;100461.00;5019280;28;20045;-64
2021/12/14 06:55:52;;;;;;;16.97;9.63;;;;;;;3.09;96.99;100461.44;5021256;28;20312;-66
2021/12/14 06:58:24;;;;;;;22.80;13.10;;;;;;;3.18;96.55;100464.34;5021937;28;20060;-64
2021/12/14 07:01:33;;;;;;;18.83;11.13;;;;;;;3.05;96.58;100463.41;5020879;28;20037;-63
2021/12/14 07:04:08;;;;;;;14.27;9.13;;;;;;;3.00;97.24;100468.09;5008060;28;20053;-64
2021/12/14 07:06:37;;;;;;;12.07;7.83;;;;;;;3.04;97.63;100476.59;5023248;28;20246;-64
2021/12/14 07:09:28;;;;;;;14.83;9.30;;;;;;;3.12;97.02;100472.59;5022295;28;20136;-66
2021/12/14 07:12:02;;;;;;;14.03;8.03;;;;;;;2.97;97.52;100465.69;5014779;28;20046;-64
2021/12/14 07:14:28;;;;;;;;;;;;;;;3.03;97.19;100472.31;5006139;28;20341;-66
2021/12/14 07:17:01;;;;;;;18.10;10.10;;;;;;;2.94;97.85;100465.03;5022250;28;20146;-64
2021/12/14 07:19:47;;;;;;;22.65;11.38;;;;;;;2.89;98.07;100475.78;5023497;28;20048;-65
2021/12/14 07:22:26;;;;;;;20.37;11.67;;;;;;;2.77;98.46;100472.16;5016627;28;20050;-63
2021/12/14 07:25:15;;;;;;;20.97;10.93;;;;;;;2.76;99.15;100478.31;5023608;28;20038;-63
2021/12/14 07:27:43;;;;;;;23.30;11.60;;;;;;;2.91;98.55;100471.28;5024145;28;20049;-65
2021/12/14 07:30:09;;;;;;;22.63;12.53;;;;;;;2.77;98.94;100477.38;5024381;28;20729;-66
2021/12/14 07:32:41;;;;;;;30.57;14.23;;;;;;;2.80;99.21;100477.19;5023948;28;20064;-63
2021/12/14 07:35:27;;;;;;;32.93;16.33;;;;;;;2.87;99.45;100480.28;5006424;28;20057;-66
2021/12/14 07:37:57;;;;;;;26.00;13.50;;;;;;;2.82;99.86;100477.09;5024125;28;20239;-64
2021/12/14 07:40:41;;;;;;;23.37;13.10;;;;;;;2.91;99.63;100480.91;5024093;28;20025;-64
2021/12/14 07:43:21;;;;;;;23.33;13.95;;;;;;;3.11;98.54;100483.97;5023709;28;20088;-66
2021/12/14 07:45:50;;;;;;;20.50;11.43;;;;;;;2.94;98.76;100478.94;5023782;28;20036;-66
2021/12/14 07:48:18;;;;;;;17.00;9.57;;;;;;;3.09;98.75;100483.22;5023857;28;20068;-65
2021/12/14 07:50:49;;;;;;;16.67;9.30;;;;;;;3.18;97.88;100494.91;5023797;28;20026;-64
2021/12/14 07:53:30;;;;;;;19.60;9.43;;;;;;;3.17;98.01;100491.47;5023933;28;20048;-64
2021/12/14 07:55:55;;;;;;;14.30;8.00;;;;;;;2.89;98.96;100494.94;5023803;28;20030;-64
2021/12/14 07:58:34;;;;;;;17.47;9.10;;;;;;;2.86;99.79;100494.28;5023621;28;20201;-65
2021/12/14 08:01:00;;;;;;;19.87;10.50;;;;;;;2.87;99.99;100495.97;5023810;28;20033;-65
2021/12/14 08:03:32;;;;;;;17.53;11.00;;;;;;;3.09;99.46;100495.47;5023904;28;20068;-65
2021/12/14 08:05:58;;;;;;;19.53;10.30;;;;;;;3.04;99.31;100501.00;5023221;28;20029;-65
2021/12/14 08:08:33;;;;;;;18.27;10.40;;;;;;;3.11;98.97;100502.28;5006181;28;20141;-65
2021/12/14 08:13:50;;;;;;;19.80;10.90;;;;;;;3.24;98.57;100510.22;5023052;28;20049;-64
2021/12/14 08:16:16;;;;;;;22.27;11.53;;;;;;;3.12;98.48;100501.38;5023266;28;20319;-66
2021/12/14 08:18:43;;;;;;;24.63;12.03;;;;;;;3.02;99.38;100504.63;5022813;28;20358;-64
2021/12/14 08:21:12;;;;;;;18.80;11.47;;;;;;;2.93;100.00;100505.19;5023065;28;20096;-65
2021/12/14 08:23:38;;;;;;;22.60;12.57;;;;;;;3.07;100.00;100508.66;5002941;28;20141;-66
2021/12/14 08:26:06;;;;;;;19.23;10.50;;;;;;;3.09;99.90;100519.00;5002725;28;20320;-66
2021/12/14 08:28:32;;;;;;;21.57;12.70;;;;;;;3.16;99.82;100513.34;5002602;28;20038;-65
2021/12/14 08:31:02;;;;;;;20.97;11.97;;;;;;;3.10;100.00;100507.63;5002576;28;20030;-64
2021/12/14 08:33:30;;;;;;;22.07;11.90;;;;;;;3.20;99.79;100516.59;5002860;28;20038;-63
2021/12/14 08:35:59;;;;;;;18.30;9.27;;;;;;;3.09;100.00;100509.38;5002084;28;20161;-66
2021/12/14 08:38:27;;;;;;;16.53;9.27;;;;;;;3.04;100.00;100510.59;5020696;28;20029;-66
2021/12/14 08:40:57;;;;;;;20.50;9.63;;;;;;;3.24;100.00;100523.31;5004316;28;20044;-66
2021/12/14 08:43:32;;;;;;;19.47;10.87;;;;;;;3.25;99.64;100514.53;5021726;28;20070;-64
2021/12/14 08:46:09;;;;;;;25.03;13.00;;;;;;;3.12;100.00;100508.34;5022189;28;20042;-64
2021/12/14 08:48:45;;;;;;;26.00;13.93;;;;;;;3.23;100.00;100507.72;5021967;28;20026;-65
2021/12/14 08:51:15;;;;;;;23.77;12.90;;;;;;;3.25;100.00;100509.28;5022068;28;20026;-64
2021/12/14 08:54:09;;;;;;;17.87;10.33;;;;;;;3.37;99.87;100505.91;5021414;28;20034;-65
2021/12/14 08:56:39;;;;;;;20.08;10.55;;;;;;;3.29;99.23;100502.94;4997125;28;20034;-64
2021/12/14 08:59:06;;;;;;;17.60;11.00;;;;;;;3.43;99.49;100504.66;4985159;28;20038;-66
2021/12/14 09:01:33;;;;;;;19.40;10.70;;;;;;;3.35;99.50;100501.69;5002171;28;20034;-64
2021/12/14 09:04:06;;;;;;;23.17;11.50;;;;;;;3.26;100.00;100504.91;5001696;28;20266;-66
2021/12/14 09:06:35;;;;;;;19.00;10.03;;;;;;;3.24;100.00;100491.06;4984618;28;20269;-64
2021/12/14 09:09:05;;;;;;;19.50;10.77;;;;;;;3.33;100.00;100493.94;5001860;28;20045;-63
2021/12/14 09:11:35;;;;;;;23.73;11.10;;;;;;;3.32;100.00;100484.41;5001642;28;20193;-64
2021/12/14 09:14:02;;;;;;;21.37;11.40;;;;;;;3.44;99.63;100488.88;5001881;28;20080;-66
2021/12/14 09:16:32;;;;;;;18.77;10.00;;;;;;;3.31;100.00;100485.34;5001961;28;20030;-66
2021/12/14 09:19:09;;;;;;;17.13;8.80;;;;;;;3.29;100.00;100489.84;5001244;28;20046;-64
2021/12/14 09:21:40;;;;;;;13.80;8.10;;;;;;;3.30;100.00;100475.81;5001901;28;20056;-64
2021/12/14 09:24:10;;;;;;;13.90;8.13;;;;;;;3.52;99.67;100475.28;5020736;28;20026;-64
2021/12/14 09:26:40;;;;;;;15.50;8.23;;;;;;;3.41;99.62;100473.34;5021335;28;20021;-64
2021/12/14 09:29:16;;;;;;;13.83;7.90;;;;;;;3.41;99.93;100472.50;5021406;28;20025;-66
2021/12/14 09:31:47;;;;;;;14.57;7.97;;;;;;;3.38;100.00;100460.47;5001466;28;20030;-64
2021/12/14 09:34:14;;;;;;;11.17;6.87;;;;;;;3.48;100.00;100473.78;5020400;28;20061;-65
2021/12/14 09:36:41;;;;;;;13.57;7.70;;;;;;;3.60;99.83;100469.53;5021159;28;20041;-64
2021/12/14 09:39:16;;;;;;;13.87;7.43;;;;;;;3.66;99.67;100461.28;5021497;28;20286;-66
2021/12/14 09:41:44;;;;;;;12.90;7.47;;;;;;;3.57;99.69;100436.53;5020809;28;20033;-66
2021/12/14 09:44:13;;;;;;;13.53;7.50;;;;;;;3.62;99.06;100458.03;5020867;28;20080;-64
2021/12/14 09:46:40;;;;;;;17.83;9.47;;;;;;;3.72;98.29;100445.16;5021620;28;20041;-64
2021/12/14 09:49:08;;;;;;;17.47;9.80;;;;;;;3.71;98.91;100441.72;5024969;28;20080;-64
2021/12/14 09:51:39;;;;;;;16.13;8.53;;;;;;;3.68;99.15;100451.53;5024989;28;20189;-64
2021/12/14 09:54:07;;;;;;;16.90;8.70;;;;;;;3.65;99.39;100444.72;5024944;28;20060;-66
2021/12/14 09:56:37;;;;;;;16.50;9.63;;;;;;;3.62;100.00;100449.34;5024815;28;20034;-64
2021/12/14 09:59:05;;;;;;;15.53;8.30;;;;;;;3.59;99.92;100433.81;5025295;28;20539;-66
2021/12/14 10:01:48;;;;;;;15.20;7.60;;;;;;;3.61;100.00;100453.72;5007382;28;20018;-64
2021/12/14 10:04:30;;;;;;;17.00;9.27;;;;;;;3.60;100.00;100444.19;5024793;28;20038;-66
2021/12/14 10:06:58;;;;;;;16.27;8.27;;;;;;;3.50;100.00;100436.09;5013508;28;20038;-64
2021/12/14 10:09:27;;;;;;;13.63;9.10;;;;;;;3.86;100.00;100434.63;5007151;28;20030;-66
2021/12/14 10:14:27;;;;;;;11.27;7.33;;;;;;;3.83;100.00;100426.97;5008407;28;20073;-64
2021/12/14 10:16:53;;;;;;;13.73;8.17;;;;;;;3.80;100.00;100430.63;5008354;28;20040;-64
2021/12/14 10:19:24;;;;;;;13.50;8.07;;;;;;;3.83;100.00;100434.81;5009582;28;20053;-64
2021/12/14 10:21:56;;;;;;;15.23;8.63;;;;;;;3.73;100.00;100436.38;5008829;28;20068;-66
2021/12/14 10:24:22;;;;;;;14.53;9.50;;;;;;;3.83;100.00;100438.28;5006278;28;20066;-66
2021/12/14 10:26:53;;;;;;;14.63;8.17;;;;;;;3.77;100.00;100435.22;5009855;28;20330;-64
2021/12/14 10:29:19;;;;;;;18.63;8.33;;;;;;;3.75;100.00;100434.50;5008357;28;20026;-66
2021/12/14 10:31:51;;;;;;;16.20;8.80;;;;;;;3.85;100.00;100440.78;5008288;28;20097;-66
2021/12/14 10:34:22;;;;;;;14.63;8.93;;;;;;;3.90;99.80;100436.09;5008997;28;20026;-66
2021/12/14 10:36:53;;;;;;;13.50;8.53;;;;;;;3.74;100.00;100441.50;5007139;28;20038;-66
2021/12/14 10:44:52;;;;;;;18.63;10.97;;;;;;;3.62;100.00;100436.25;5008355;28;20116;-66
2021/12/14 10:47:20;;;;;;;18.67;8.90;;;;;;;3.74;100.00;100432.81;5008123;28;20216;-63
2021/12/14 10:49:45;;;;;;;18.20;10.07;;;;;;;3.86;100.00;100432.00;5008049;28;20271;-64
2021/12/14 10:52:18;;;;;;;19.60;11.10;;;;;;;3.96;100.00;100433.06;5008699;28;20093;-63
2021/12/14 10:54:51;;;;;;;21.03;12.27;;;;;;;3.85;100.00;100433.78;5008231;28;20258;-64
2021/12/14 10:57:23;;;;;;;23.43;13.27;;;;;;;4.02;100.00;100424.78;4989735;28;20032;-66
2021/12/14 10:59:51;;;;;;;22.47;11.70;;;;;;;3.88;100.00;100421.41;5007487;28;20057;-66
2021/12/14 11:02:20;;;;;;;21.03;11.60;;;;;;;3.77;100.00;100419.50;5007358;28;20050;-64
2021/12/14 11:04:55;;;;;;;23.53;12.17;;;;;;;3.86;100.00;100424.13;5008248;28;20344;-63
2021/12/14 11:07:35;;;;;;;20.50;12.37;;;;;;;3.81;100.00;100413.13;5008838;28;20100;-66
2021/12/14 11:10:15;;;;;;;25.83;13.57;;;;;;;3.96;100.00;100425.19;5008065;28;20260;-64
2021/12/14 11:12:45;;;;;;;20.37;12.60;;;;;;;4.01;100.00;100424.88;5007262;28;20105;-64
2021/12/14 11:15:13;;;;;;;23.93;11.93;;;;;;;4.10;100.00;100412.00;5006666;28;20319;-64
2021/12/14 11:20:32;;;;;;;16.17;9.77;;;;;;;3.97;100.00;100416.38;5009161;28;20036;-64
2021/12/14 11:23:04;;;;;;;17.98;10.93;;;;;;;4.07;100.00;100421.84;4989335;28;20034;-64
2021/12/14 11:25:33;;;;;;;22.13;13.70;;;;;;;3.97;100.00;100413.78;5006929;28;20161;-66
2021/12/14 11:28:09;;;;;;;20.80;12.67;;;;;;;3.99;100.00;100414.50;5008465;28;20059;-66
2021/12/14 11:30:41;;;;;;;20.40;11.10;;;;;;;4.08;100.00;100415.66;5005912;28;20030;-64
2021/12/14 11:33:29;;;;;;;24.23;12.10;;;;;;;4.10;100.00;100409.38;5008192;28;20053;-64
2021/12/14 11:36:05;;;;;;;21.60;11.50;;;;;;;4.21;100.00;100407.84;5007295;28;20037;-66
2021/12/14 11:38:42;;;;;;;19.80;11.80;;;;;;;4.30;100.00;100409.81;5008596;28;20037;-64
2021/12/14 11:41:40;;;;;;;16.90;9.67;;;;;;;4.27;100.00;100416.13;5007390;28;20050;-65
2021/12/14 11:44:15;;;;;;;21.30;12.03;;;;;;;4.46;99.85;100420.91;5006845;28;20165;-66
2021/12/14 11:46:47;;;;;;;16.93;10.00;;;;;;;4.30;100.00;100418.53;5007433;28;20347;-64
2021/12/14 11:49:12;;;;;;;17.17;9.20;;;;;;;4.25;100.00;100410.13;5007256;28;20034;-64
2021/12/14 11:51:38;;;;;;;16.97;8.90;;;;;;;4.10;100.00;100408.53;5006814;28;20036;-63
2021/12/14 11:54:04;;;;;;;18.60;10.27;;;;;;;4.20;100.00;100395.66;5006770;28;20034;-66
2021/12/14 11:56:32;;;;;;;17.20;9.43;;;;;;;4.22;100.00;100410.34;5007064;28;20025;-66
2021/12/14 11:59:05;;;;;;;16.73;10.70;;;;;;;4.28;100.00;100404.69;5004334;28;20223;-63
2021/12/14 12:01:40;;;;;;;20.35;10.02;;;;;;;4.39;100.00;100420.50;5005926;28;20033;-64
2021/12/14 12:04:10;;;;;;;18.40;10.07;;;;;;;4.39;100.00;100407.41;5007498;28;20045;-66
2021/12/14 12:09:28;;;;;;;19.43;10.73;;;;;;;4.39;100.00;100406.56;5004719;28;20217;-63
2021/12/14 12:11:58;;;;;;;21.80;11.63;;;;;;;4.51;99.85;100408.31;5002233;28;20065;-64
2021/12/14 12:14:40;;;;;;;24.70;12.60;;;;;;;4.42;99.78;100404.56;5002793;28;20053;-64
2021/12/14 12:17:15;;;;;;;20.43;10.80;;;;;;;4.39;99.71;100406.56;5002449;28;20034;-66
2021/12/14 12:19:52;;;;;;;17.70;10.43;;;;;;;4.35;100.00;100405.94;5002874;28;20030;-66
2021/12/14 12:22:17;;;;;;;21.13;11.03;;;;;;;4.46;99.52;100400.78;5003069;28;20054;-66
2021/12/14 12:24:50;;;;;;;18.53;10.20;;;;;;;4.42;100.00;100406.34;5003625;28;20241;-63